createdAt,value
2018-01-18T00:02:54.754Z,4.12
2018-01-18T00:05:49.973Z,4.20
2018-01-18T00:11:30.916Z,3.53
2018-01-18T00:17:10.628Z,3.85
2018-01-18T00:19:39.839Z,4.18
2018-01-18T00:22:09.066Z,3.50
2018-01-18T00:24:35.712Z,3.72
2018-01-18T00:27:04.778Z,3.40
2018-01-18T00:29:36.459Z,2.83
2018-01-18T00:32:18.980Z,3.17
2018-01-18T00:34:49.970Z,3.78
2018-01-18T00:37:16.350Z,3.15
2018-01-18T00:39:43.083Z,2.97
2018-01-18T00:42:22.894Z,3.12
2018-01-18T00:44:50.092Z,3.28
2018-01-18T00:47:23.622Z,2.78
2018-01-18T00:49:50.801Z,2.90
2018-01-18T00:52:20.274Z,3.53
2018-01-18T00:54:49.199Z,2.45
2018-01-18T00:57:20.656Z,2.85
2018-01-18T00:59:50.347Z,3.35
2018-01-18T01:02:17.627Z,2.65
2018-01-18T01:04:44.126Z,4.07
2018-01-18T01:07:10.427Z,3.33
2018-01-18T01:09:36.828Z,3.10
2018-01-18T01:12:18.693Z,3.78
2018-01-18T01:14:46.151Z,4.25
2018-01-18T01:17:12.338Z,5.12
2018-01-18T01:19:39.802Z,3.78
2018-01-18T01:22:17.117Z,2.97
2018-01-18T01:28:26.213Z,3.78
2018-01-18T01:30:53.974Z,2.85
2018-01-18T01:33:21.333Z,3.12
2018-01-18T01:35:48.536Z,3.40
2018-01-18T01:38:21.967Z,3.90
2018-01-18T01:40:48.330Z,2.75
2018-01-18T01:43:14.630Z,2.45
2018-01-18T01:45:50.870Z,2.87
2018-01-18T01:48:30.842Z,2.42
2018-01-18T01:50:58.642Z,3.42
2018-01-18T01:53:41.430Z,2.40
2018-01-18T01:56:08.051Z,3.53
2018-01-18T01:58:36.672Z,2.67
2018-01-18T02:01:09.935Z,2.55
2018-01-18T02:03:46.715Z,3.42
2018-01-18T02:06:15.032Z,4.95
2018-01-18T02:08:57.335Z,4.20
2018-01-18T02:14:11.914Z,2.95
2018-01-18T02:16:41.579Z,2.10
2018-01-18T02:19:15.319Z,3.10
2018-01-18T02:21:45.070Z,3.37
2018-01-18T02:24:22.928Z,3.70
2018-01-18T02:29:55.090Z,5.45
2018-01-18T02:32:22.293Z,4.28
2018-01-18T02:34:48.644Z,3.83
2018-01-18T02:37:16.936Z,4.03
2018-01-18T02:39:50.193Z,4.00
2018-01-18T02:42:16.745Z,3.62
2018-01-18T02:44:50.127Z,4.57
2018-01-18T02:47:17.708Z,4.12
2018-01-18T02:49:47.544Z,4.53
2018-01-18T02:52:14.672Z,3.45
2018-01-18T02:54:41.018Z,3.87
2018-01-18T02:57:07.746Z,4.30
2018-01-18T02:59:38.227Z,3.85
2018-01-18T03:02:04.639Z,4.05
2018-01-18T03:04:34.927Z,4.43
2018-01-18T03:07:01.600Z,3.60
2018-01-18T03:09:38.722Z,4.20
2018-01-18T03:12:27.460Z,3.17
2018-01-18T03:18:04.770Z,2.58
2018-01-18T03:20:31.593Z,3.30
2018-01-18T03:23:06.077Z,3.40
2018-01-18T03:25:33.746Z,3.12
2018-01-18T03:28:00.287Z,2.65
2018-01-18T03:30:26.947Z,2.03
2018-01-18T03:32:53.499Z,2.78
2018-01-18T03:38:51.217Z,3.08
2018-01-18T03:41:17.792Z,2.65
2018-01-18T03:43:44.104Z,2.45
2018-01-18T03:46:21.265Z,3.37
2018-01-18T03:48:49.889Z,5.00
2018-01-18T03:51:20.840Z,2.55
2018-01-18T03:53:47.262Z,2.90
2018-01-18T03:56:14.002Z,2.80
2018-01-18T04:08:12.556Z,1.90
2018-01-18T04:10:44.060Z,2.05
2018-01-18T04:13:12.491Z,2.45
2018-01-18T04:16:00.128Z,2.15
2018-01-18T04:18:29.767Z,1.52
2018-01-18T04:20:56.305Z,2.40
2018-01-18T04:23:23.001Z,2.03
2018-01-18T04:28:30.504Z,2.30
2018-01-18T04:31:06.142Z,2.20
2018-01-18T04:36:30.117Z,1.30
2018-01-18T04:39:08.383Z,1.58
2018-01-18T04:41:40.706Z,1.37
2018-01-18T08:21:28.118Z,1.70
2018-01-18T08:24:14.312Z,1.27
2018-01-18T08:29:44.990Z,1.67
2018-01-18T08:35:18.710Z,1.85
2018-01-18T08:38:01.047Z,1.30
2018-01-18T08:40:28.372Z,1.73
2018-01-18T08:42:55.116Z,1.33
2018-01-18T08:45:21.890Z,1.50
2018-01-18T08:47:49.128Z,2.05
2018-01-18T08:50:28.812Z,1.27
2018-01-18T08:56:05.512Z,1.40
2018-01-18T08:58:31.757Z,3.60
2018-01-18T09:01:01.925Z,2.67
2018-01-18T09:06:37.674Z,4.15
2018-01-18T09:09:26.764Z,3.97
2018-01-18T09:11:53.199Z,3.42
2018-01-18T09:17:21.779Z,1.70
2018-01-18T09:19:48.439Z,2.05
2018-01-18T09:22:17.111Z,2.25
2018-01-18T09:24:56.678Z,2.00
2018-01-18T09:27:26.818Z,2.05
2018-01-18T09:29:59.260Z,2.00
2018-01-18T09:39:08.028Z,2.33
2018-01-18T09:41:42.130Z,2.70
2018-01-18T09:44:20.994Z,2.75
2018-01-18T09:46:56.704Z,1.75
2018-01-18T10:20:24.384Z,2.10
2018-01-18T10:22:51.625Z,2.50
2018-01-18T10:34:38.859Z,1.40
2018-01-18T10:37:05.288Z,1.55
2018-01-18T10:39:38.566Z,1.33
2018-01-18T10:42:04.935Z,1.37
2018-01-18T10:44:31.759Z,1.02
2018-01-18T10:46:58.138Z,1.45
2018-01-18T10:52:18.817Z,1.15
2018-01-18T10:55:04.243Z,1.35
2018-01-18T10:57:50.351Z,1.25
2018-01-18T11:00:22.901Z,1.60
2018-01-18T11:09:19.693Z,1.00
2018-01-18T11:11:52.003Z,1.67
2018-01-18T11:17:32.225Z,1.50
2018-01-18T11:20:00.525Z,1.15
2018-01-18T11:22:28.395Z,1.33
2018-01-18T11:25:03.215Z,1.37
2018-01-18T11:30:40.695Z,1.20
2018-01-18T11:33:08.090Z,1.50
2018-01-18T11:41:39.692Z,1.80
2018-01-18T11:47:19.958Z,1.98
2018-01-18T11:56:03.066Z,1.27
2018-01-18T11:58:29.605Z,1.50
2018-01-18T12:00:58.167Z,1.50
2018-01-18T12:03:37.411Z,1.50
2018-01-18T12:06:11.307Z,1.60
2018-01-18T12:11:49.309Z,1.40
2018-01-18T12:17:40.682Z,1.67
2018-01-18T12:26:22.755Z,1.15
2018-01-18T12:38:20.567Z,1.77
2018-01-18T12:40:48.126Z,1.60
2018-01-18T12:43:17.937Z,1.25
2018-01-18T12:45:59.647Z,1.40
2018-01-18T12:48:36.611Z,2.20
2018-01-18T12:54:13.280Z,1.50
2018-01-18T12:56:41.671Z,1.45
2018-01-18T13:05:27.681Z,1.50
2018-01-18T13:29:24.626Z,0.75
2018-01-18T13:31:51.115Z,0.95
2018-01-18T13:34:42.704Z,1.23
2018-01-18T13:37:19.318Z,0.77
2018-01-18T13:39:45.660Z,0.62
2018-01-18T13:42:11.943Z,0.80
2018-01-18T13:47:44.463Z,1.27
2018-01-18T13:50:21.931Z,1.02
2018-01-18T13:55:56.881Z,1.40
2018-01-18T14:01:24.670Z,1.08
2018-01-18T14:04:15.854Z,1.25
2018-01-18T14:09:52.353Z,1.17
2018-01-18T14:18:42.451Z,1.95
2018-01-18T14:21:14.954Z,2.60
2018-01-18T14:27:20.394Z,1.17
2018-01-18T14:29:53.021Z,2.15
2018-01-18T14:32:19.754Z,1.80
2018-01-18T14:34:50.408Z,1.80
2018-01-18T14:49:33.141Z,1.30
2018-01-18T14:58:13.424Z,1.40
2018-01-18T15:00:42.791Z,1.90
2018-01-18T15:03:13.301Z,1.60
2018-01-18T15:05:41.496Z,2.15
2018-01-18T15:11:24.237Z,2.37
2018-01-18T15:13:50.707Z,2.20
2018-01-18T15:16:18.728Z,2.65
2018-01-18T15:21:35.951Z,2.37
2018-01-18T15:24:02.458Z,2.75
2018-01-18T15:35:30.791Z,3.80
2018-01-18T15:44:16.426Z,5.60
2018-01-18T15:46:48.315Z,7.25
2018-01-18T15:52:19.704Z,7.50
2018-01-18T15:54:50.635Z,6.70
2018-01-18T15:57:28.551Z,6.95
2018-01-18T15:59:55.769Z,6.10
2018-01-18T16:05:40.140Z,6.20
2018-01-18T16:10:50.459Z,6.28
2018-01-18T16:13:22.341Z,7.50
2018-01-18T16:15:48.886Z,4.80
2018-01-18T16:18:17.250Z,5.75
2018-01-18T16:20:43.714Z,6.60
2018-01-18T19:30:48.425Z,4.05
2018-01-18T19:39:16.546Z,4.15
2018-01-18T19:49:35.387Z,5.80
2018-01-18T19:52:01.634Z,7.22
2018-01-18T19:57:20.499Z,4.68
2018-01-18T19:59:47.131Z,4.70
2018-01-18T20:08:40.179Z,5.62
2018-01-18T20:11:07.549Z,5.65
2018-01-18T20:16:46.740Z,4.95
2018-01-18T20:19:20.637Z,5.10
2018-01-18T20:21:52.254Z,5.20
2018-01-18T20:24:30.754Z,5.37
2018-01-18T20:26:57.211Z,4.82
2018-01-18T20:29:41.506Z,6.30
2018-01-18T20:32:14.947Z,4.85
2018-01-18T20:35:21.815Z,4.70
2018-01-18T20:37:48.329Z,6.65
2018-01-18T20:40:16.256Z,6.70
2018-01-18T20:42:51.169Z,6.70
2018-01-18T20:45:21.030Z,7.12
2018-01-18T20:50:52.352Z,6.60
2018-01-18T20:56:10.781Z,6.22
2018-01-18T20:58:50.260Z,6.90
2018-01-18T21:01:25.118Z,5.87
2018-01-18T21:04:17.003Z,7.47
2018-01-18T21:16:01.188Z,9.30
2018-01-18T21:18:37.762Z,7.12
2018-01-18T21:27:27.722Z,6.40
2018-01-18T21:29:54.028Z,7.03
2018-01-18T21:32:20.332Z,6.75
2018-01-18T21:34:47.429Z,5.53
2018-01-18T21:37:17.593Z,6.28
2018-01-18T21:39:44.293Z,5.37
2018-01-18T21:45:20.662Z,5.45
2018-01-18T21:47:50.643Z,6.03
2018-01-18T21:50:17.322Z,5.90
2018-01-18T21:55:25.794Z,5.45
2018-01-18T21:57:57.733Z,5.40
2018-01-18T22:00:24.283Z,5.30
2018-01-18T22:06:01.030Z,5.15
2018-01-18T22:08:32.040Z,5.72
2018-01-18T22:10:58.439Z,5.47
2018-01-18T22:13:24.775Z,5.78
2018-01-18T22:19:09.644Z,5.30
2018-01-18T22:21:50.961Z,5.00
2018-01-18T22:34:08.044Z,6.05
2018-01-18T22:39:21.256Z,5.82
2018-01-18T22:41:47.746Z,6.10
2018-01-18T22:44:14.347Z,5.20
2018-01-18T22:46:40.998Z,6.07
2018-01-18T22:49:08.948Z,6.50
2018-01-18T22:51:38.590Z,5.70
2018-01-18T22:54:05.230Z,5.70
2018-01-18T22:56:32.392Z,5.10
2018-01-18T22:59:03.754Z,5.50
2018-01-18T23:01:32.353Z,5.65
2018-01-18T23:07:11.222Z,5.60
2018-01-18T23:09:37.749Z,5.32
2018-01-18T23:12:04.751Z,5.55
2018-01-18T23:14:43.867Z,5.93
2018-01-18T23:17:11.133Z,4.80
2018-01-18T23:19:37.539Z,5.50
2018-01-18T23:28:22.432Z,4.97
2018-01-18T23:30:49.123Z,5.37
2018-01-18T23:33:19.368Z,5.12
2018-01-18T23:38:58.551Z,4.37
2018-01-18T23:41:27.198Z,5.05
2018-01-18T23:47:12.436Z,5.53
2018-01-18T23:49:51.725Z,5.90
2018-01-18T23:52:18.195Z,5.35
2018-01-18T23:54:45.365Z,6.10
2018-01-18T23:57:13.369Z,6.18
2018-01-18T23:59:41.258Z,7.00
